createdAt,value
2022-08-23T00:02:26.472Z,6.63
2022-08-23T00:05:09.097Z,3.83
2022-08-23T00:07:39.244Z,4.73
2022-08-23T00:10:08.648Z,7.00
2022-08-23T00:12:38.689Z,5.27
2022-08-23T00:15:08.020Z,6.67
2022-08-23T00:17:37.297Z,4.47
2022-08-23T00:20:06.448Z,5.47
2022-08-23T00:22:34.969Z,5.27
2022-08-23T00:25:03.379Z,4.40
2022-08-23T00:27:31.850Z,3.87
2022-08-23T00:30:02.281Z,5.33
2022-08-23T00:32:31.832Z,7.57
2022-08-23T00:35:00.776Z,3.47
2022-08-23T00:37:29.978Z,3.33
2022-08-23T00:39:58.475Z,5.73
2022-08-23T00:42:48.380Z,4.77
2022-08-23T00:45:44.276Z,3.97
2022-08-23T00:48:13.423Z,4.10
2022-08-23T00:50:45.661Z,6.20
2022-08-23T00:53:16.789Z,4.17
2022-08-23T00:55:49.344Z,6.43
2022-08-23T00:58:19.438Z,4.67
2022-08-23T01:00:49.966Z,4.97
2022-08-23T01:03:20.638Z,7.33
2022-08-23T01:09:40.132Z,5.13
2022-08-23T01:12:11.113Z,6.30
2022-08-23T01:14:41.259Z,4.67
2022-08-23T01:17:14.704Z,4.90
2022-08-23T01:19:45.960Z,4.13
2022-08-23T01:22:18.185Z,4.40
2022-08-23T01:25:08.549Z,6.03
2022-08-23T01:27:41.096Z,4.87
2022-08-23T01:30:11.316Z,9.20
2022-08-23T01:32:43.108Z,6.47
2022-08-23T01:35:11.617Z,6.60
2022-08-23T01:37:40.204Z,5.83
2022-08-23T01:40:11.162Z,5.27
2022-08-23T01:42:41.813Z,6.50
2022-08-23T01:45:12.776Z,5.97
2022-08-23T01:47:42.020Z,4.43
2022-08-23T01:50:12.994Z,5.83
2022-08-23T01:52:47.074Z,4.00
2022-08-23T01:55:23.213Z,3.90
2022-08-23T01:57:54.193Z,8.70
2022-08-23T02:00:24.834Z,7.17
2022-08-23T02:02:55.720Z,6.27
2022-08-23T02:05:24.209Z,6.67
2022-08-23T02:07:55.400Z,6.00
2022-08-23T02:10:25.806Z,5.13
2022-08-23T02:12:54.435Z,7.17
2022-08-23T02:15:25.002Z,8.17
2022-08-23T02:17:55.876Z,5.30
2022-08-23T02:20:25.511Z,9.47
2022-08-23T02:22:53.977Z,6.17
2022-08-23T02:25:22.802Z,5.07
2022-08-23T02:27:52.699Z,4.67
2022-08-23T02:30:21.444Z,8.60
2022-08-23T02:32:51.527Z,6.97
2022-08-23T02:35:21.247Z,7.40
2022-08-23T02:37:49.737Z,5.80
2022-08-23T02:40:18.412Z,6.47
2022-08-23T02:42:47.355Z,6.23
2022-08-23T02:45:18.669Z,6.67
2022-08-23T02:47:49.593Z,8.50
2022-08-23T02:50:24.334Z,8.63
2022-08-23T02:52:55.171Z,6.17
2022-08-23T02:55:24.738Z,5.90
2022-08-23T02:57:54.314Z,5.13
2022-08-23T03:00:25.639Z,7.83
2022-08-23T03:02:54.193Z,6.27
2022-08-23T03:05:23.581Z,6.40
2022-08-23T03:07:52.517Z,4.33
2022-08-23T03:10:21.929Z,6.33
2022-08-23T03:12:56.631Z,5.57
2022-08-23T03:15:26.439Z,8.57
2022-08-23T03:17:55.038Z,8.00
2022-08-23T03:20:23.661Z,7.57
2022-08-23T03:22:54.908Z,7.80
2022-08-23T03:25:26.074Z,6.97
2022-08-23T03:28:08.072Z,5.33
2022-08-23T03:30:43.263Z,6.17
2022-08-23T03:33:12.344Z,4.93
2022-08-23T03:35:41.872Z,8.10
2022-08-23T03:38:13.919Z,9.67
2022-08-23T03:40:43.309Z,6.77
2022-08-23T03:43:15.122Z,4.73
2022-08-23T03:45:44.897Z,5.93
2022-08-23T03:48:14.019Z,7.57
2022-08-23T03:50:42.623Z,6.97
2022-08-23T03:53:12.151Z,5.80
2022-08-23T03:55:42.948Z,4.83
2022-08-23T03:58:15.107Z,6.20
2022-08-23T04:00:47.466Z,6.90
2022-08-23T04:03:16.083Z,6.07
2022-08-23T04:06:02.652Z,6.40
2022-08-23T04:08:33.936Z,11.37
2022-08-23T04:11:04.231Z,5.80
2022-08-23T04:13:33.814Z,7.57
2022-08-23T04:16:05.777Z,5.37
2022-08-23T04:18:35.545Z,6.93
2022-08-23T04:21:07.770Z,8.10
2022-08-23T04:23:37.176Z,8.70
2022-08-23T04:26:06.259Z,5.67
2022-08-23T04:28:38.162Z,6.87
2022-08-23T04:31:08.035Z,5.93
2022-08-23T04:33:40.176Z,7.30
2022-08-23T04:36:10.707Z,8.37
2022-08-23T04:38:39.220Z,7.73
2022-08-23T04:41:26.680Z,9.57
2022-08-23T04:43:57.293Z,5.83
2022-08-23T04:46:29.072Z,5.77
2022-08-23T04:49:00.813Z,10.20
2022-08-23T04:51:29.401Z,5.80
2022-08-23T04:53:58.057Z,8.80
2022-08-23T04:56:45.067Z,6.40
2022-08-23T04:59:20.477Z,8.17
2022-08-23T05:01:53.114Z,8.10
2022-08-23T05:04:21.721Z,7.77
2022-08-23T05:06:52.145Z,7.77
2022-08-23T05:09:25.070Z,7.87
2022-08-23T05:11:56.179Z,7.97
2022-08-23T05:14:29.582Z,8.77
2022-08-23T05:17:00.247Z,7.27
2022-08-23T05:19:28.779Z,6.70
2022-08-23T05:21:57.469Z,10.27
2022-08-23T05:24:37.953Z,8.63
2022-08-23T05:27:10.635Z,8.27
2022-08-23T05:29:41.913Z,8.70
2022-08-23T05:32:11.759Z,10.67
2022-08-23T05:34:40.210Z,7.50
2022-08-23T05:37:12.163Z,8.23
2022-08-23T05:39:44.101Z,10.07
2022-08-23T05:42:13.924Z,8.07
2022-08-23T05:44:43.445Z,11.53
2022-08-23T05:47:15.546Z,8.33
2022-08-23T05:50:02.136Z,12.00
2022-08-23T05:52:34.931Z,11.67
2022-08-23T05:55:03.476Z,11.03
2022-08-23T05:57:37.642Z,9.27
2022-08-23T06:00:08.000Z,9.17
2022-08-23T06:02:49.195Z,10.43
2022-08-23T06:05:19.572Z,11.20
2022-08-23T06:07:49.345Z,7.93
2022-08-23T06:10:20.329Z,12.90
2022-08-23T06:12:53.328Z,13.60
2022-08-23T06:15:22.828Z,10.20
2022-08-23T06:17:52.609Z,8.07
2022-08-23T06:20:21.216Z,8.27
2022-08-23T06:23:08.075Z,10.83
2022-08-23T06:25:38.190Z,9.13
2022-08-23T06:28:11.991Z,10.37
2022-08-23T06:30:43.546Z,10.20
2022-08-23T06:33:21.796Z,10.40
2022-08-23T06:36:15.133Z,7.50
2022-08-23T06:39:05.593Z,9.23
2022-08-23T06:41:48.544Z,8.70
2022-08-23T06:44:28.442Z,8.07
2022-08-23T06:47:13.944Z,10.13
2022-08-23T06:49:55.403Z,7.43
2022-08-23T06:52:45.201Z,11.60
2022-08-23T06:55:22.373Z,7.00
2022-08-23T06:58:05.106Z,7.47
2022-08-23T07:00:57.361Z,7.63
2022-08-23T07:03:36.614Z,10.63
2022-08-23T07:06:25.201Z,11.00
2022-08-23T07:08:53.681Z,8.70
2022-08-23T07:11:23.343Z,8.07
2022-08-23T07:13:52.863Z,7.43
2022-08-23T07:16:21.787Z,10.00
2022-08-23T07:18:51.781Z,10.63
2022-08-23T07:21:20.529Z,7.90
2022-08-23T07:23:50.487Z,7.97
2022-08-23T07:26:19.678Z,5.75
2022-08-23T07:28:48.440Z,6.07
2022-08-23T07:31:18.355Z,7.70
2022-08-23T07:33:47.850Z,10.23
2022-08-23T07:36:22.218Z,7.90
2022-08-23T07:38:52.281Z,8.93
2022-08-23T07:41:22.134Z,5.32
2022-08-23T07:43:50.582Z,7.43
2022-08-23T07:46:19.298Z,7.40
2022-08-23T07:48:54.441Z,8.20
2022-08-23T07:51:26.414Z,5.82
2022-08-23T07:53:56.408Z,10.20
2022-08-23T07:56:25.102Z,6.03
2022-08-23T07:59:01.387Z,6.75
2022-08-23T08:01:48.240Z,7.15
2022-08-23T08:04:17.023Z,6.30
2022-08-23T08:07:04.921Z,5.07
2022-08-23T08:09:42.308Z,5.90
2022-08-23T08:12:11.190Z,10.77
2022-08-23T08:14:42.482Z,6.68
2022-08-23T08:17:12.084Z,4.63
2022-08-23T08:20:09.709Z,5.00
2022-08-23T08:23:00.301Z,5.70
2022-08-23T08:26:02.394Z,6.28
2022-08-23T08:28:31.804Z,5.10
2022-08-23T08:31:00.682Z,4.82
2022-08-23T08:33:30.803Z,3.60
2022-08-23T08:36:01.983Z,4.25
2022-08-23T08:38:32.464Z,8.73
2022-08-23T08:41:11.020Z,5.15
2022-08-23T08:43:46.364Z,6.68
2022-08-23T08:46:17.022Z,5.05
2022-08-23T08:48:48.628Z,5.88
2022-08-23T08:51:22.108Z,5.72
2022-08-23T08:53:51.605Z,3.80
2022-08-23T08:56:35.011Z,4.68
2022-08-23T08:59:13.167Z,5.03
2022-08-23T09:01:43.096Z,4.75
2022-08-23T09:04:15.019Z,4.32
2022-08-23T09:06:51.007Z,4.72
2022-08-23T09:09:25.216Z,3.40
2022-08-23T09:12:00.038Z,3.03
2022-08-23T09:14:43.994Z,4.82
2022-08-23T09:17:20.816Z,7.25
2022-08-23T09:19:52.577Z,3.88
2022-08-23T09:22:22.733Z,3.55
2022-08-23T09:24:51.715Z,7.22
2022-08-23T09:27:29.386Z,4.82
2022-08-23T09:30:06.212Z,3.33
2022-08-23T09:32:37.544Z,5.47
2022-08-23T09:35:13.115Z,4.65
2022-08-23T09:37:52.415Z,4.45
2022-08-23T09:40:25.603Z,4.35
2022-08-23T09:43:06.554Z,3.65
2022-08-23T09:45:36.687Z,4.38
2022-08-23T09:48:07.920Z,7.60
2022-08-23T09:50:49.447Z,5.40
2022-08-23T09:53:25.272Z,6.38
2022-08-23T09:55:55.139Z,5.40
2022-08-23T09:58:28.459Z,4.20
2022-08-23T10:01:08.552Z,6.32
2022-08-23T10:03:37.079Z,3.72
2022-08-23T10:06:31.733Z,3.75
2022-08-23T10:09:05.593Z,8.57
2022-08-23T10:11:39.432Z,4.30
2022-08-23T10:14:11.635Z,6.32
2022-08-23T10:16:42.672Z,5.18
2022-08-23T10:19:20.225Z,4.68
2022-08-23T10:21:54.362Z,4.40
2022-08-23T10:24:28.976Z,6.25
2022-08-23T10:27:24.361Z,5.68
2022-08-23T10:29:57.938Z,3.20
2022-08-23T10:32:33.554Z,2.78
2022-08-23T10:35:06.650Z,3.72
2022-08-23T10:37:49.227Z,3.05
2022-08-23T10:40:21.533Z,3.17
2022-08-23T10:42:54.793Z,4.70
2022-08-23T10:45:29.467Z,5.70
2022-08-23T10:48:05.073Z,4.68
2022-08-23T10:50:41.391Z,4.25
2022-08-23T10:53:12.802Z,3.83
2022-08-23T10:55:55.050Z,4.72
2022-08-23T10:58:30.810Z,5.40
2022-08-23T11:01:02.360Z,3.47
2022-08-23T11:03:31.984Z,4.95
2022-08-23T11:06:20.910Z,4.03
2022-08-23T11:08:49.561Z,5.13
2022-08-23T11:11:44.026Z,4.63
2022-08-23T11:14:14.483Z,5.30
2022-08-23T11:16:48.720Z,5.35
2022-08-23T11:19:37.901Z,5.28
2022-08-23T11:22:15.268Z,6.53
2022-08-23T11:24:54.021Z,6.50
2022-08-23T11:27:42.569Z,5.38
2022-08-23T11:30:34.209Z,7.25
2022-08-23T11:33:16.863Z,4.47
2022-08-23T11:35:46.836Z,6.45
2022-08-23T11:38:22.659Z,7.72
2022-08-23T11:41:00.250Z,4.57
2022-08-23T11:43:38.186Z,3.67
2022-08-23T11:46:18.827Z,3.78
2022-08-23T11:48:51.250Z,2.70
2022-08-23T11:51:27.357Z,5.53
2022-08-23T11:54:10.185Z,6.82
2022-08-23T11:56:46.298Z,4.07
2022-08-23T11:59:24.988Z,5.70
2022-08-23T12:01:54.520Z,4.80
2022-08-23T12:04:37.885Z,7.00
2022-08-23T12:07:12.571Z,5.85
2022-08-23T12:09:54.996Z,4.75
2022-08-23T12:12:37.802Z,5.50
2022-08-23T12:15:09.633Z,5.68
2022-08-23T12:17:56.740Z,6.15
2022-08-23T12:20:36.453Z,5.03
2022-08-23T12:23:18.689Z,3.58
2022-08-23T12:25:47.076Z,5.60
2022-08-23T12:28:29.908Z,5.65
2022-08-23T12:31:00.332Z,5.53
2022-08-23T12:33:42.975Z,5.13
2022-08-23T12:36:18.030Z,4.75
2022-08-23T12:38:55.163Z,4.38
2022-08-23T12:41:24.919Z,4.10
2022-08-23T12:44:01.398Z,6.78
2022-08-23T12:46:32.248Z,4.43
2022-08-23T12:49:00.718Z,5.47
2022-08-23T12:51:30.520Z,3.63
2022-08-23T12:54:00.328Z,4.00
2022-08-23T12:56:32.018Z,8.65
2022-08-23T12:59:03.417Z,6.03
2022-08-23T13:01:33.107Z,4.43
2022-08-23T13:04:05.137Z,7.38
2022-08-23T13:06:36.770Z,3.53
2022-08-23T13:09:09.548Z,5.22
2022-08-23T13:11:41.160Z,5.25
2022-08-23T13:14:23.537Z,6.20
2022-08-23T13:16:53.240Z,5.07
2022-08-23T13:19:26.118Z,5.78
2022-08-23T13:22:15.574Z,3.60
2022-08-23T13:24:45.147Z,5.03
2022-08-23T13:27:23.798Z,3.88
2022-08-23T13:29:53.489Z,4.70
2022-08-23T13:32:30.028Z,3.75
2022-08-23T13:35:13.354Z,5.03
2022-08-23T13:37:46.717Z,4.85
2022-08-23T13:40:18.120Z,6.20
2022-08-23T13:42:52.801Z,3.05
2022-08-23T13:45:27.559Z,4.60
2022-08-23T13:47:58.231Z,3.47
2022-08-23T13:50:27.696Z,4.85
2022-08-23T13:53:13.889Z,5.05
2022-08-23T13:55:44.469Z,4.07
2022-08-23T13:58:13.686Z,5.60
2022-08-23T14:00:55.100Z,4.00
2022-08-23T14:03:26.220Z,5.13
2022-08-23T14:05:54.663Z,6.35
2022-08-23T14:08:24.455Z,5.80
2022-08-23T14:10:53.052Z,4.65
2022-08-23T14:13:24.364Z,4.60
2022-08-23T14:16:32.958Z,3.25
2022-08-23T14:19:15.017Z,4.00
2022-08-23T14:21:29.522Z,5.10
2022-08-23T14:23:59.357Z,2.45
2022-08-23T14:26:27.958Z,3.95
2022-08-23T14:28:56.622Z,4.00
2022-08-23T14:31:25.369Z,3.53
2022-08-23T14:33:53.800Z,3.05
2022-08-23T14:36:23.680Z,7.80
2022-08-23T14:38:56.145Z,4.63
2022-08-23T14:41:27.075Z,3.65
2022-08-23T14:43:55.852Z,3.08
2022-08-23T14:46:24.510Z,5.60
2022-08-23T14:48:52.978Z,3.33
2022-08-23T14:51:25.852Z,5.32
2022-08-23T14:53:54.581Z,5.18
2022-08-23T14:56:23.073Z,4.80
2022-08-23T14:58:52.890Z,3.45
2022-08-23T15:01:21.981Z,4.22
2022-08-23T15:03:51.290Z,4.88
2022-08-23T15:06:20.765Z,5.70
2022-08-23T15:08:49.983Z,8.52
2022-08-23T15:14:08.150Z,4.35
2022-08-23T15:16:37.253Z,6.05
2022-08-23T15:19:06.583Z,6.57
2022-08-23T15:21:37.752Z,5.55
2022-08-23T15:24:06.581Z,4.93
2022-08-23T15:26:38.260Z,4.03
2022-08-23T15:29:08.343Z,6.82
2022-08-23T15:31:36.769Z,3.58
2022-08-23T15:34:05.391Z,5.70
2022-08-23T15:36:42.945Z,5.68
2022-08-23T15:39:11.455Z,5.13
2022-08-23T15:41:39.824Z,5.10
2022-08-23T15:44:09.602Z,4.72
2022-08-23T15:46:39.082Z,5.22
2022-08-23T15:49:11.989Z,6.80
2022-08-23T15:51:40.399Z,6.25
2022-08-23T15:54:10.247Z,4.85
2022-08-23T15:56:41.262Z,2.65
2022-08-23T15:59:12.463Z,3.42
2022-08-23T16:01:43.762Z,3.63
2022-08-23T16:04:12.252Z,6.70
2022-08-23T16:06:41.365Z,4.93
2022-08-23T16:09:12.635Z,2.72
2022-08-23T16:11:45.255Z,5.30
2022-08-23T16:14:15.167Z,3.45
2022-08-23T16:16:46.953Z,2.47
2022-08-23T16:19:16.681Z,3.50
2022-08-23T16:21:45.667Z,2.90
2022-08-23T16:24:14.989Z,3.10
2022-08-23T16:26:46.929Z,4.03
2022-08-23T16:29:18.258Z,3.50
2022-08-23T16:31:46.869Z,5.25
2022-08-23T16:34:16.801Z,2.58
2022-08-23T16:36:46.833Z,3.30
2022-08-23T16:39:15.709Z,4.75
2022-08-23T16:41:44.240Z,3.25
2022-08-23T16:44:12.712Z,3.40
2022-08-23T16:46:43.954Z,4.20
2022-08-23T16:49:12.882Z,3.28
2022-08-23T16:51:41.483Z,3.83
2022-08-23T16:54:10.187Z,2.92
2022-08-23T16:56:40.119Z,3.20
2022-08-23T16:59:10.203Z,7.60
2022-08-23T17:01:46.523Z,6.97
2022-08-23T17:04:15.032Z,4.65
2022-08-23T17:06:43.959Z,3.90
2022-08-23T17:09:12.372Z,3.95
2022-08-23T17:11:41.930Z,6.18
2022-08-23T17:14:10.730Z,1.92
2022-08-23T17:16:39.163Z,2.95
2022-08-23T17:19:09.001Z,4.15
2022-08-23T17:21:37.381Z,3.15
2022-08-23T17:24:06.197Z,5.70
2022-08-23T17:26:34.636Z,4.18
2022-08-23T17:29:04.656Z,4.95
2022-08-23T17:31:33.152Z,4.03
2022-08-23T17:34:03.881Z,3.83
2022-08-23T17:36:37.647Z,4.22
2022-08-23T17:39:08.248Z,3.78
2022-08-23T17:41:36.666Z,4.30
2022-08-23T17:44:05.660Z,4.60
2022-08-23T17:46:35.585Z,4.60
2022-08-23T17:49:04.004Z,5.43
2022-08-23T17:51:34.478Z,5.20
2022-08-23T17:54:03.077Z,1.98
2022-08-23T17:56:31.495Z,4.43
2022-08-23T17:59:00.219Z,3.08
2022-08-23T18:01:29.067Z,3.38
2022-08-23T18:03:58.136Z,4.85
2022-08-23T18:06:27.184Z,5.13
2022-08-23T18:08:57.035Z,3.28
2022-08-23T18:11:25.439Z,2.50
2022-08-23T18:13:54.129Z,3.35
2022-08-23T18:16:22.624Z,3.85
2022-08-23T18:18:51.077Z,4.10
2022-08-23T18:21:19.549Z,4.50
2022-08-23T18:23:48.014Z,3.38
2022-08-23T18:26:31.644Z,4.25
2022-08-23T18:29:00.253Z,4.65
2022-08-23T18:31:28.911Z,4.35
2022-08-23T18:34:00.540Z,4.32
2022-08-23T18:36:30.181Z,3.10
2022-08-23T18:38:58.723Z,4.28
2022-08-23T18:41:28.469Z,3.78
2022-08-23T18:43:56.848Z,3.53
2022-08-23T18:46:29.346Z,4.85
2022-08-23T18:49:01.535Z,4.53
2022-08-23T18:51:30.948Z,6.50
2022-08-23T18:53:59.898Z,6.40
2022-08-23T18:56:30.029Z,5.50
2022-08-23T18:58:58.478Z,4.82
2022-08-23T19:01:28.130Z,4.90
2022-08-23T19:03:57.980Z,5.22
2022-08-23T19:06:45.333Z,6.55
2022-08-23T19:09:14.608Z,4.32
2022-08-23T19:11:45.456Z,7.93
2022-08-23T19:14:14.389Z,8.32
2022-08-23T19:16:48.172Z,9.25
2022-08-23T19:19:17.112Z,9.18
2022-08-23T19:21:45.467Z,7.88
2022-08-23T19:24:13.891Z,6.88
2022-08-23T19:26:49.071Z,9.82
2022-08-23T19:29:20.634Z,10.32
2022-08-23T19:31:50.252Z,7.60
2022-08-23T19:34:19.581Z,10.18
2022-08-23T19:36:55.821Z,7.68
2022-08-23T19:39:28.700Z,8.27
2022-08-23T19:41:58.477Z,9.05
2022-08-23T19:44:26.868Z,10.32
2022-08-23T19:46:56.413Z,10.30
2022-08-23T19:49:24.904Z,9.40
2022-08-23T19:51:53.548Z,10.73
2022-08-23T19:54:21.972Z,9.18
2022-08-23T19:56:53.124Z,8.98
2022-08-23T19:59:24.521Z,9.65
2022-08-23T20:01:53.544Z,8.13
2022-08-23T20:04:22.820Z,9.07
2022-08-23T20:06:51.276Z,10.18
2022-08-23T20:09:24.238Z,10.25
2022-08-23T20:11:53.452Z,7.45
2022-08-23T20:14:28.042Z,8.75
2022-08-23T20:16:56.857Z,8.25
2022-08-23T20:19:25.623Z,8.57
2022-08-23T20:22:17.247Z,10.40
2022-08-23T20:24:51.283Z,12.15
2022-08-23T20:27:30.371Z,9.38
2022-08-23T20:30:01.574Z,10.32
2022-08-23T20:32:31.419Z,8.15
2022-08-23T20:35:00.517Z,9.00
2022-08-23T20:37:28.923Z,9.32
2022-08-23T20:39:57.459Z,10.88
2022-08-23T20:42:26.038Z,12.57
2022-08-23T20:44:54.465Z,9.10
2022-08-23T20:47:31.404Z,8.40
2022-08-23T20:50:00.211Z,10.15
2022-08-23T20:52:32.793Z,10.82
2022-08-23T20:55:03.063Z,9.70
2022-08-23T20:57:35.826Z,10.50
2022-08-23T21:00:08.273Z,9.57
2022-08-23T21:02:38.289Z,9.05
2022-08-23T21:05:07.134Z,9.13
2022-08-23T21:07:35.703Z,11.90
2022-08-23T21:10:06.001Z,8.63
2022-08-23T21:12:35.034Z,10.20
2022-08-23T21:15:04.509Z,10.15
2022-08-23T21:17:35.222Z,9.35
2022-08-23T21:20:07.900Z,11.07
2022-08-23T21:22:36.664Z,8.93
2022-08-23T21:25:05.683Z,10.48
2022-08-23T21:27:34.772Z,13.45
2022-08-23T21:30:03.660Z,7.93
2022-08-23T21:32:32.530Z,7.25
2022-08-23T21:35:02.095Z,12.48
2022-08-23T21:37:32.364Z,9.90
2022-08-23T21:40:01.204Z,10.10
2022-08-23T21:42:30.530Z,10.90
2022-08-23T21:44:59.014Z,10.57
2022-08-23T21:47:28.147Z,9.55
2022-08-23T21:49:56.788Z,9.75
2022-08-23T21:52:25.273Z,9.90
2022-08-23T21:54:55.357Z,9.77
2022-08-23T21:57:23.811Z,7.50
2022-08-23T21:59:53.308Z,10.23
2022-08-23T22:02:25.136Z,12.75
2022-08-23T22:04:53.843Z,11.43
2022-08-23T22:07:22.569Z,8.20
2022-08-23T22:09:52.122Z,10.52
2022-08-23T22:12:24.913Z,8.75
2022-08-23T22:14:53.618Z,13.15
2022-08-23T22:17:21.975Z,8.93
2022-08-23T22:19:51.611Z,7.35
2022-08-23T22:22:19.994Z,7.97
2022-08-23T22:24:48.395Z,12.57
2022-08-23T22:27:16.769Z,10.02
2022-08-23T22:29:46.879Z,8.18
2022-08-23T22:32:15.252Z,9.07
2022-08-23T22:34:43.717Z,7.68
2022-08-23T22:37:12.140Z,9.55
2022-08-23T22:39:40.554Z,10.80
2022-08-23T22:42:10.094Z,7.93
2022-08-23T22:44:48.862Z,9.15
2022-08-23T22:47:17.543Z,7.05
2022-08-23T22:49:46.119Z,8.00
2022-08-23T22:52:14.644Z,10.52
2022-08-23T22:54:45.322Z,10.68
2022-08-23T22:57:13.765Z,6.68
2022-08-23T22:59:42.655Z,8.38
2022-08-23T23:02:14.682Z,10.37
2022-08-23T23:04:44.632Z,8.68
2022-08-23T23:07:34.983Z,8.00
2022-08-23T23:10:03.649Z,7.47
2022-08-23T23:12:32.331Z,8.17
2022-08-23T23:15:00.736Z,9.10
2022-08-23T23:17:31.207Z,9.15
2022-08-23T23:20:18.163Z,7.93
2022-08-23T23:22:46.645Z,12.60
2022-08-23T23:25:15.049Z,9.03
2022-08-23T23:27:43.407Z,8.27
2022-08-23T23:30:12.944Z,7.70
2022-08-23T23:32:43.329Z,6.90
2022-08-23T23:35:12.439Z,7.30
2022-08-23T23:37:40.774Z,9.63
2022-08-23T23:40:09.837Z,9.70
2022-08-23T23:42:38.980Z,9.33
2022-08-23T23:45:07.940Z,7.30
2022-08-23T23:47:36.276Z,8.17
2022-08-23T23:50:06.503Z,9.60
2022-08-23T23:52:34.906Z,9.90
2022-08-23T23:55:04.201Z,12.00
2022-08-23T23:57:32.658Z,11.17
